createdAt,value
2017-06-26T00:00:01.088Z,14.96
2017-06-26T00:01:10.680Z,14.94
2017-06-26T00:02:19.568Z,14.91
2017-06-26T00:03:28.452Z,14.96
2017-06-26T00:04:37.664Z,14.95
2017-06-26T00:05:46.871Z,14.96
2017-06-26T00:06:55.958Z,14.88
2017-06-26T00:08:04.840Z,15.01
2017-06-26T00:09:13.727Z,14.99
2017-06-26T00:10:22.615Z,14.96
2017-06-26T00:11:31.506Z,15.02
2017-06-26T00:12:40.392Z,14.88
2017-06-26T00:13:49.279Z,14.98
2017-06-26T00:14:58.491Z,14.95
2017-06-26T00:16:07.375Z,14.95
2017-06-26T00:17:16.264Z,14.96
2017-06-26T00:18:25.629Z,14.92
2017-06-26T00:19:34.515Z,14.98
2017-06-26T00:20:43.402Z,14.88
2017-06-26T00:21:52.941Z,14.92
2017-06-26T00:23:01.833Z,14.92
2017-06-26T00:24:11.343Z,14.88
2017-06-26T00:25:20.233Z,14.94
2017-06-26T00:26:29.443Z,14.8
2017-06-26T00:27:38.977Z,14.84
2017-06-26T00:28:47.864Z,14.72
2017-06-26T00:29:57.003Z,14.77
2017-06-26T00:31:06.542Z,14.77
2017-06-26T00:32:15.427Z,14.69
2017-06-26T00:33:24.637Z,14.73
2017-06-26T00:34:33.524Z,14.77
2017-06-26T00:35:42.710Z,14.77
2017-06-26T00:36:51.605Z,14.73
2017-06-26T00:38:00.816Z,14.77
2017-06-26T00:39:09.703Z,14.89
2017-06-26T00:40:18.916Z,14.83
2017-06-26T00:41:27.953Z,14.69
2017-06-26T00:42:36.839Z,14.68
2017-06-26T00:43:46.377Z,14.81
2017-06-26T00:44:55.264Z,14.75
2017-06-26T00:46:04.474Z,14.52
2017-06-26T00:47:13.887Z,14.52
2017-06-26T00:48:23.424Z,14.55
2017-06-26T00:49:32.307Z,14.6
2017-06-26T00:50:41.195Z,14.52
2017-06-26T00:51:50.406Z,14.52
2017-06-26T00:52:59.621Z,14.52
2017-06-26T00:54:08.511Z,14.46
2017-06-26T00:55:17.393Z,14.47
2017-06-26T00:56:26.279Z,14.43
2017-06-26T00:57:35.167Z,14.37
2017-06-26T00:58:44.053Z,14.36
2017-06-26T00:59:52.942Z,14.35
2017-06-26T01:01:01.835Z,14.51
2017-06-26T01:02:11.054Z,14.46
2017-06-26T01:03:19.942Z,14.45
2017-06-26T01:04:29.218Z,14.4
2017-06-26T01:05:38.429Z,14.45
2017-06-26T01:06:47.316Z,14.42
2017-06-26T01:07:56.200Z,14.51
2017-06-26T01:09:05.094Z,14.43
2017-06-26T01:10:14.406Z,14.46
2017-06-26T01:11:23.288Z,14.51
2017-06-26T01:12:32.502Z,14.45
2017-06-26T01:13:42.040Z,14.5
2017-06-26T01:14:51.253Z,14.29
2017-06-26T01:16:00.192Z,14.33
2017-06-26T01:17:09.084Z,14.28
2017-06-26T01:18:18.292Z,14.27
2017-06-26T01:19:27.177Z,14.29
2017-06-26T01:20:36.065Z,14.27
2017-06-26T01:21:45.104Z,14.29
2017-06-26T01:22:53.993Z,14.32
2017-06-26T01:24:03.213Z,14.33
2017-06-26T01:25:12.099Z,14.32
2017-06-26T01:26:20.986Z,14.28
2017-06-26T01:27:30.024Z,14.35
2017-06-26T01:28:39.566Z,14.33
2017-06-26T01:29:48.776Z,14.29
2017-06-26T01:30:57.665Z,14.27
2017-06-26T01:32:06.550Z,14.29
2017-06-26T01:33:15.735Z,14.27
2017-06-26T01:34:24.624Z,14.29
2017-06-26T01:35:34.168Z,14.27
2017-06-26T01:36:43.384Z,14.27
2017-06-26T01:37:52.275Z,14.25
2017-06-26T01:39:01.786Z,14.25
2017-06-26T01:40:10.674Z,14.22
2017-06-26T01:41:19.888Z,14.27
2017-06-26T01:42:28.778Z,14.22
2017-06-26T01:43:37.988Z,14.25
2017-06-26T01:44:47.026Z,14.24
2017-06-26T01:45:56.561Z,14.21
2017-06-26T01:47:05.773Z,14.24
2017-06-26T01:48:15.315Z,14.2
2017-06-26T01:49:24.200Z,14.2
2017-06-26T01:50:33.509Z,14.2
2017-06-26T01:51:42.721Z,14.12
2017-06-26T01:52:51.610Z,14.17
2017-06-26T01:54:01.142Z,14.15
2017-06-26T01:55:10.355Z,14.09
2017-06-26T01:56:19.296Z,14.02
2017-06-26T01:57:28.181Z,14.09
2017-06-26T01:58:37.398Z,14.1
2017-06-26T01:59:46.281Z,14.15
2017-06-26T02:00:55.815Z,14.12
2017-06-26T02:02:05.030Z,14.2
2017-06-26T02:03:13.914Z,14.14
2017-06-26T02:04:22.805Z,14.17
2017-06-26T02:05:31.691Z,14.2
2017-06-26T02:06:41.225Z,14.25
2017-06-26T02:07:50.160Z,14.25
2017-06-26T02:08:59.055Z,14.24
2017-06-26T02:10:07.942Z,14.24
2017-06-26T02:11:17.161Z,14.17
2017-06-26T02:12:26.374Z,14.15
2017-06-26T02:13:35.785Z,14.2
2017-06-26T02:14:44.672Z,14.21
2017-06-26T02:15:53.558Z,14.18
2017-06-26T02:17:02.446Z,14.18
2017-06-26T02:18:11.655Z,14.18
2017-06-26T02:19:21.015Z,14.17
2017-06-26T02:20:30.230Z,14.22
2017-06-26T02:21:39.117Z,14.32
2017-06-26T02:22:48.011Z,14.29
2017-06-26T02:23:57.223Z,14.29
2017-06-26T02:25:06.437Z,14.27
2017-06-26T02:26:15.326Z,14.32
2017-06-26T02:27:24.215Z,14.22
2017-06-26T02:28:33.098Z,14.32
2017-06-26T02:29:42.309Z,14.27
2017-06-26T02:30:51.623Z,14.22
2017-06-26T02:32:00.513Z,14.2
2017-06-26T02:33:09.727Z,14.24
2017-06-26T02:34:18.619Z,14.22
2017-06-26T02:35:28.161Z,14.15
2017-06-26T02:36:37.199Z,14.18
2017-06-26T02:37:46.090Z,14.17
2017-06-26T02:38:55.308Z,14.21
2017-06-26T02:40:04.193Z,14.24
2017-06-26T02:41:13.404Z,14.21
2017-06-26T02:42:22.296Z,14.15
2017-06-26T02:43:31.183Z,14.18
2017-06-26T02:44:40.079Z,14.21
2017-06-26T02:45:49.293Z,14.12
2017-06-26T02:46:58.502Z,14.09
2017-06-26T02:48:07.444Z,14.1
2017-06-26T02:49:16.986Z,14.09
2017-06-26T02:50:26.195Z,14.07
2017-06-26T02:51:35.408Z,14.07
2017-06-26T02:52:44.300Z,13.99
2017-06-26T02:53:53.185Z,14.12
2017-06-26T02:55:02.400Z,13.95
2017-06-26T02:56:11.289Z,13.99
2017-06-26T02:57:20.173Z,14
2017-06-26T02:58:29.064Z,13.99
2017-06-26T02:59:38.652Z,13.99
2017-06-26T03:00:47.533Z,13.91
2017-06-26T03:01:56.750Z,13.92
2017-06-26T03:03:05.967Z,13.81
2017-06-26T03:04:14.855Z,13.91
2017-06-26T03:05:24.168Z,13.92
2017-06-26T03:06:33.054Z,13.85
2017-06-26T03:07:42.594Z,13.84
2017-06-26T03:08:51.807Z,13.84
2017-06-26T03:10:00.693Z,13.82
2017-06-26T03:11:09.909Z,13.82
2017-06-26T03:12:19.467Z,13.73
2017-06-26T03:13:28.352Z,13.75
2017-06-26T03:14:37.239Z,13.64
2017-06-26T03:15:46.128Z,13.7
2017-06-26T03:16:55.011Z,13.66
2017-06-26T03:18:04.235Z,13.69
2017-06-26T03:19:13.127Z,13.73
2017-06-26T03:20:22.010Z,13.75
2017-06-26T03:21:30.898Z,13.64
2017-06-26T03:22:40.268Z,13.73
2017-06-26T03:23:49.483Z,13.66
2017-06-26T03:24:58.381Z,13.6
2017-06-26T03:26:07.270Z,13.51
2017-06-26T03:27:16.162Z,13.64
2017-06-26T03:28:25.152Z,13.57
2017-06-26T03:29:34.365Z,13.59
2017-06-26T03:30:43.574Z,13.51
2017-06-26T03:31:52.460Z,13.49
2017-06-26T03:33:01.344Z,13.48
2017-06-26T03:34:10.381Z,13.54
2017-06-26T03:35:19.265Z,13.55
2017-06-26T03:36:28.149Z,13.49
2017-06-26T03:37:37.049Z,13.51
2017-06-26T03:38:45.934Z,13.49
2017-06-26T03:39:55.120Z,13.51
2017-06-26T03:41:04.672Z,13.54
2017-06-26T03:42:13.565Z,13.52
2017-06-26T03:43:22.453Z,13.44
2017-06-26T03:44:31.663Z,13.52
2017-06-26T03:45:40.552Z,13.51
2017-06-26T03:46:49.766Z,13.49
2017-06-26T03:47:58.652Z,13.52
2017-06-26T03:49:07.541Z,13.6
2017-06-26T03:50:16.757Z,13.59
2017-06-26T03:51:25.750Z,13.51
2017-06-26T03:52:34.634Z,13.54
2017-06-26T03:53:43.519Z,13.57
2017-06-26T03:54:52.412Z,13.51
2017-06-26T03:56:01.297Z,13.6
2017-06-26T03:57:10.386Z,13.57
2017-06-26T03:58:19.280Z,13.59
2017-06-26T03:59:28.163Z,13.55
2017-06-26T04:00:37.048Z,13.52
2017-06-26T04:01:45.947Z,13.52
2017-06-26T04:02:55.309Z,13.52
2017-06-26T04:04:04.198Z,13.55
2017-06-26T04:05:13.087Z,13.51
2017-06-26T04:06:21.975Z,13.66
2017-06-26T04:07:30.864Z,13.69
2017-06-26T04:08:40.073Z,13.67
2017-06-26T04:09:48.958Z,13.67
2017-06-26T04:10:58.169Z,13.7
2017-06-26T04:12:07.056Z,13.71
2017-06-26T04:13:15.946Z,13.73
2017-06-26T04:14:24.933Z,13.71
2017-06-26T04:15:33.820Z,13.63
2017-06-26T04:16:42.706Z,13.66
2017-06-26T04:17:51.594Z,13.66
2017-06-26T04:19:00.476Z,13.67
2017-06-26T04:20:09.788Z,13.67
2017-06-26T04:21:19.649Z,13.66
2017-06-26T04:22:29.186Z,13.64
2017-06-26T04:23:38.080Z,13.64
2017-06-26T04:24:46.968Z,13.62
2017-06-26T04:25:56.104Z,13.64
2017-06-26T04:27:04.991Z,13.73
2017-06-26T04:28:13.878Z,13.73
2017-06-26T04:29:22.763Z,13.79
2017-06-26T04:30:31.977Z,13.75
2017-06-26T04:31:41.576Z,13.75
2017-06-26T04:32:50.791Z,13.7
2017-06-26T04:33:59.679Z,13.73
2017-06-26T04:35:08.566Z,13.79
2017-06-26T04:36:17.449Z,13.63
2017-06-26T04:37:26.493Z,13.6
2017-06-26T04:38:35.382Z,13.55
2017-06-26T04:39:44.266Z,13.49
2017-06-26T04:40:53.154Z,13.52
2017-06-26T04:42:02.366Z,13.6
2017-06-26T04:43:11.776Z,13.6
2017-06-26T04:44:20.667Z,13.54
2017-06-26T04:45:29.559Z,13.51
2017-06-26T04:46:38.446Z,13.59
2017-06-26T04:47:47.652Z,13.59
2017-06-26T04:48:57.024Z,13.52
2017-06-26T04:50:06.593Z,13.55
2017-06-26T04:51:15.481Z,13.64
2017-06-26T04:52:24.694Z,13.6
2017-06-26T04:53:33.906Z,13.6
2017-06-26T04:54:42.790Z,13.55
2017-06-26T04:55:51.676Z,13.62
2017-06-26T04:57:00.884Z,13.63
2017-06-26T04:58:10.092Z,13.54
2017-06-26T04:59:19.305Z,13.55
2017-06-26T05:00:28.673Z,13.55
2017-06-26T05:01:37.563Z,13.51
2017-06-26T05:02:47.100Z,13.59
2017-06-26T05:03:56.014Z,13.52
2017-06-26T05:05:05.231Z,13.51
2017-06-26T05:06:14.775Z,13.54
2017-06-26T05:07:23.992Z,13.51
2017-06-26T05:08:32.876Z,13.75
2017-06-26T05:09:42.094Z,13.77
2017-06-26T05:10:50.978Z,13.7
2017-06-26T05:12:00.448Z,13.7
2017-06-26T05:13:09.661Z,13.71
2017-06-26T05:14:18.874Z,13.7
2017-06-26T05:15:28.407Z,13.81
2017-06-26T05:16:37.300Z,13.82
2017-06-26T05:17:46.337Z,13.99
2017-06-26T05:18:55.551Z,13.89
2017-06-26T05:20:04.440Z,13.95
2017-06-26T05:21:13.978Z,13.89
2017-06-26T05:22:22.867Z,13.89
2017-06-26T05:23:32.233Z,13.84
2017-06-26T05:24:41.120Z,13.87
2017-06-26T05:25:50.009Z,13.88
2017-06-26T05:26:58.897Z,13.96
2017-06-26T05:28:07.788Z,13.99
2017-06-26T05:29:17.296Z,13.88
2017-06-26T05:30:26.188Z,14
2017-06-26T05:31:35.366Z,13.95
2017-06-26T05:32:44.261Z,14
2017-06-26T05:33:53.149Z,13.91
2017-06-26T05:35:02.515Z,14.07
2017-06-26T05:36:11.401Z,14.1
2017-06-26T05:37:20.289Z,14.18
2017-06-26T05:38:29.829Z,14.22
2017-06-26T05:39:39.041Z,14.28
2017-06-26T05:40:47.933Z,14.33
2017-06-26T05:41:56.850Z,14.42
2017-06-26T05:43:06.066Z,14.5
2017-06-26T05:44:14.961Z,14.47
2017-06-26T05:45:24.179Z,14.52
2017-06-26T05:46:33.068Z,14.55
2017-06-26T05:47:42.280Z,14.55
2017-06-26T05:48:51.494Z,14.62
2017-06-26T05:50:00.381Z,14.7
2017-06-26T05:51:09.625Z,14.65
2017-06-26T05:52:18.522Z,14.7
2017-06-26T05:53:27.754Z,14.75
2017-06-26T05:54:36.646Z,14.62
2017-06-26T05:55:45.859Z,14.81
2017-06-26T05:56:54.745Z,14.78
2017-06-26T05:58:03.957Z,14.89
2017-06-26T05:59:13.498Z,14.96
2017-06-26T06:00:22.384Z,14.98
2017-06-26T06:01:31.623Z,15.09
2017-06-26T06:02:41.159Z,15.07
2017-06-26T06:03:50.053Z,14.98
2017-06-26T06:04:58.942Z,15.07
2017-06-26T06:06:07.843Z,15.1
2017-06-26T06:07:17.060Z,15.1
2017-06-26T06:08:25.952Z,15.2
2017-06-26T06:09:35.166Z,15.1
2017-06-26T06:10:44.054Z,15.09
2017-06-26T06:11:53.048Z,14.99
2017-06-26T06:13:02.267Z,14.96
2017-06-26T06:14:11.156Z,15.06
2017-06-26T06:15:20.077Z,15.03
2017-06-26T06:16:29.293Z,15.11
2017-06-26T06:17:38.334Z,15.09
2017-06-26T06:18:47.544Z,15.07
2017-06-26T06:19:56.755Z,15.14
2017-06-26T06:21:05.971Z,15.19
2017-06-26T06:22:15.840Z,15.1
2017-06-26T06:23:24.830Z,15.01
2017-06-26T06:24:33.727Z,15.1
2017-06-26T06:25:42.967Z,15.17
2017-06-26T06:26:51.856Z,15.09
2017-06-26T06:28:00.750Z,15.07
2017-06-26T06:29:09.790Z,15.06
2017-06-26T06:30:18.679Z,15.14
2017-06-26T06:31:27.896Z,15.17
2017-06-26T06:32:37.112Z,15.28
2017-06-26T06:33:46.327Z,15.36
2017-06-26T06:34:55.471Z,15.29
2017-06-26T06:36:04.362Z,15.28
2017-06-26T06:37:13.899Z,15.27
2017-06-26T06:38:22.789Z,15.25
2017-06-26T06:39:31.682Z,15.21
2017-06-26T06:40:40.770Z,15.27
2017-06-26T06:41:50.314Z,15.28
2017-06-26T06:42:59.530Z,15.29
2017-06-26T06:44:08.420Z,15.38
2017-06-26T06:45:17.310Z,15.27
2017-06-26T06:46:26.778Z,15.38
2017-06-26T06:47:36.320Z,15.39
2017-06-26T06:48:45.212Z,15.29
2017-06-26T06:49:54.101Z,15.32
2017-06-26T06:51:03.641Z,15.35
2017-06-26T06:52:13.005Z,15.39
2017-06-26T06:53:21.897Z,15.38
2017-06-26T06:54:30.790Z,15.38
2017-06-26T06:55:39.684Z,15.46
2017-06-26T06:56:48.908Z,15.46
2017-06-26T06:57:58.169Z,15.54
2017-06-26T06:59:07.064Z,15.5
2017-06-26T07:00:16.005Z,15.57
2017-06-26T07:01:25.553Z,15.56
2017-06-26T07:02:34.768Z,15.64
2017-06-26T07:03:43.860Z,15.62
2017-06-26T07:04:53.076Z,15.71
2017-06-26T07:06:01.966Z,15.74
2017-06-26T07:07:11.181Z,15.76
2017-06-26T07:08:20.073Z,15.89
2017-06-26T07:09:29.124Z,15.78
2017-06-26T07:10:38.014Z,15.76
2017-06-26T07:11:47.239Z,15.89
2017-06-26T07:12:56.130Z,15.96
2017-06-26T07:14:05.345Z,15.9
2017-06-26T07:15:14.711Z,15.89
2017-06-26T07:16:23.597Z,15.93
2017-06-26T07:17:32.812Z,15.97
2017-06-26T07:18:41.715Z,15.94
2017-06-26T07:19:50.610Z,16
2017-06-26T07:20:59.505Z,16
2017-06-26T07:22:08.414Z,15.96
2017-06-26T07:23:17.310Z,16.04
2017-06-26T07:24:26.850Z,16.01
2017-06-26T07:25:35.742Z,15.94
2017-06-26T07:26:44.634Z,16.02
2017-06-26T07:27:53.524Z,15.92
2017-06-26T07:29:02.412Z,15.87
2017-06-26T07:30:11.638Z,15.82
2017-06-26T07:31:20.854Z,15.97
2017-06-26T07:32:30.225Z,15.94
2017-06-26T07:33:39.772Z,15.92
2017-06-26T07:34:48.676Z,15.86
2017-06-26T07:35:57.568Z,15.78
2017-06-26T07:37:06.460Z,15.76
2017-06-26T07:38:15.509Z,15.83
2017-06-26T07:39:24.715Z,15.92
2017-06-26T07:40:33.940Z,15.93
2017-06-26T07:41:42.859Z,15.96
2017-06-26T07:42:51.755Z,15.9
2017-06-26T07:44:00.799Z,15.92
2017-06-26T07:45:10.020Z,15.92
2017-06-26T07:46:18.910Z,15.94
2017-06-26T07:47:27.802Z,15.93
2017-06-26T07:48:37.030Z,16.04
2017-06-26T07:49:46.222Z,16.05
2017-06-26T07:50:55.124Z,16.09
2017-06-26T07:52:04.009Z,16.02
2017-06-26T07:53:12.898Z,16.05
2017-06-26T07:54:21.789Z,16.12
2017-06-26T07:55:31.085Z,16.25
2017-06-26T07:56:39.985Z,16.33
2017-06-26T07:57:48.876Z,16.35
2017-06-26T07:58:58.095Z,16.34
2017-06-26T08:00:07.312Z,16.39
2017-06-26T08:01:16.455Z,16.45
2017-06-26T08:02:25.346Z,16.45
2017-06-26T08:03:34.567Z,16.5
2017-06-26T08:04:43.459Z,16.52
2017-06-26T08:05:52.346Z,16.48
2017-06-26T08:07:01.724Z,16.61
2017-06-26T08:08:10.623Z,16.66
2017-06-26T08:09:19.841Z,16.71
2017-06-26T08:10:28.731Z,16.78
2017-06-26T08:11:37.942Z,16.85
2017-06-26T08:12:47.209Z,16.83
2017-06-26T08:13:56.099Z,16.91
2017-06-26T08:15:04.994Z,16.98
2017-06-26T08:16:14.212Z,16.89
2017-06-26T08:17:23.426Z,17.01
2017-06-26T08:18:32.566Z,16.91
2017-06-26T08:19:41.458Z,17.03
2017-06-26T08:20:50.352Z,16.97
2017-06-26T08:21:59.584Z,16.91
2017-06-26T08:23:08.807Z,16.94
2017-06-26T08:24:18.435Z,16.96
2017-06-26T08:25:27.651Z,16.96
2017-06-26T08:26:36.869Z,16.94
2017-06-26T08:27:45.760Z,17
2017-06-26T08:28:54.653Z,17.04
2017-06-26T08:30:04.410Z,17.06
2017-06-26T08:31:13.306Z,17.19
2017-06-26T08:32:22.518Z,17.21
2017-06-26T08:33:31.410Z,17.26
2017-06-26T08:34:40.299Z,17.25
2017-06-26T08:35:49.294Z,17.34
2017-06-26T08:36:58.188Z,17.38
2017-06-26T08:38:07.080Z,17.44
2017-06-26T08:39:15.973Z,17.46
2017-06-26T08:40:25.188Z,17.54
2017-06-26T08:41:34.612Z,17.55
2017-06-26T08:42:43.828Z,17.63
2017-06-26T08:43:52.745Z,17.55
2017-06-26T08:45:01.974Z,17.64
2017-06-26T08:46:11.198Z,17.66
2017-06-26T08:47:20.241Z,17.62
2017-06-26T08:48:29.463Z,17.51
2017-06-26T08:49:39.013Z,17.49
2017-06-26T08:50:48.237Z,17.59
2017-06-26T08:51:57.469Z,17.55
2017-06-26T08:53:07.015Z,17.66
2017-06-26T08:54:16.561Z,17.72
2017-06-26T08:55:25.461Z,17.66
2017-06-26T08:56:34.681Z,17.58
2017-06-26T08:57:43.584Z,17.58
2017-06-26T08:58:52.803Z,17.49
2017-06-26T09:00:01.703Z,17.58
2017-06-26T09:01:11.575Z,17.59
2017-06-26T09:02:20.469Z,17.54
2017-06-26T09:03:29.689Z,17.58
2017-06-26T09:04:39.054Z,17.68
2017-06-26T09:05:47.950Z,17.71
2017-06-26T09:06:56.841Z,17.89
2017-06-26T09:08:05.728Z,17.9
2017-06-26T09:09:14.632Z,17.97
2017-06-26T09:10:23.676Z,18.03
2017-06-26T09:11:32.897Z,18.21
2017-06-26T09:12:41.792Z,18.23
2017-06-26T09:13:50.736Z,18.33
2017-06-26T09:14:59.627Z,18.45
2017-06-26T09:16:08.879Z,18.44
2017-06-26T09:17:17.771Z,18.29
2017-06-26T09:18:26.662Z,18.3
2017-06-26T09:19:35.564Z,18.29
2017-06-26T09:20:45.106Z,18.15
2017-06-26T09:21:54.154Z,18.18
2017-06-26T09:23:03.373Z,18.25
2017-06-26T09:24:12.598Z,18.14
2017-06-26T09:25:21.495Z,18.3
2017-06-26T09:26:30.403Z,18.33
2017-06-26T09:27:39.396Z,18.2
2017-06-26T09:28:48.293Z,18.21
2017-06-26T09:29:57.517Z,18.14
2017-06-26T09:31:06.732Z,18.17
2017-06-26T09:32:16.273Z,18.18
2017-06-26T09:33:25.315Z,18.18
2017-06-26T09:34:34.529Z,18.23
2017-06-26T09:35:43.428Z,18.23
2017-06-26T09:36:52.319Z,18.23
2017-06-26T09:38:01.927Z,18.12
2017-06-26T09:39:11.782Z,18.15
2017-06-26T09:40:20.685Z,18.14
2017-06-26T09:41:29.575Z,18.3
2017-06-26T09:42:38.469Z,18.3
2017-06-26T09:43:47.361Z,18.23
2017-06-26T09:44:56.736Z,18.15
2017-06-26T09:46:05.628Z,18.3
2017-06-26T09:47:14.846Z,18.35
2017-06-26T09:48:23.746Z,18.44
2017-06-26T09:49:32.654Z,18.29
2017-06-26T09:50:42.022Z,18.17
2017-06-26T09:51:50.927Z,18.15
2017-06-26T09:52:59.819Z,18.29
2017-06-26T09:54:09.366Z,18.32
2017-06-26T09:55:18.588Z,18.44
2017-06-26T09:56:27.785Z,18.44
2017-06-26T09:57:37.005Z,18.44
2017-06-26T09:58:45.898Z,18.57
2017-06-26T09:59:54.793Z,18.55
2017-06-26T10:01:04.009Z,18.6
2017-06-26T10:02:13.388Z,18.73
2017-06-26T10:03:22.927Z,18.82
2017-06-26T10:04:31.819Z,18.9
2017-06-26T10:05:40.717Z,18.92
2017-06-26T10:06:49.619Z,19.08
2017-06-26T10:07:59.411Z,19.06
2017-06-26T10:09:08.305Z,19.13
2017-06-26T10:10:17.208Z,19.25
2017-06-26T10:11:26.104Z,19.13
2017-06-26T10:12:35.005Z,19.1
2017-06-26T10:13:44.045Z,19.1
2017-06-26T10:14:52.936Z,19.04
2017-06-26T10:16:01.835Z,19.06
2017-06-26T10:17:10.736Z,19.08
2017-06-26T10:18:19.960Z,18.91
2017-06-26T10:19:28.907Z,18.92
2017-06-26T10:20:38.129Z,18.84
2017-06-26T10:21:47.351Z,18.84
2017-06-26T10:22:57.240Z,18.9
2017-06-26T10:24:07.322Z,18.94
2017-06-26T10:25:17.251Z,18.85
2017-06-26T10:26:26.156Z,18.94
2017-06-26T10:27:35.375Z,19.02
2017-06-26T10:28:44.265Z,19.13
2017-06-26T10:29:53.162Z,19.16
2017-06-26T10:31:02.355Z,19.22
2017-06-26T10:32:11.252Z,19.31
2017-06-26T10:33:20.477Z,19.4
2017-06-26T10:34:29.699Z,19.5
2017-06-26T10:35:38.597Z,19.56
2017-06-26T10:36:47.754Z,19.62
2017-06-26T10:37:57.001Z,19.84
2017-06-26T10:39:05.897Z,19.87
2017-06-26T10:40:15.122Z,20.13
2017-06-26T10:41:24.347Z,19.91
2017-06-26T10:42:33.721Z,19.92
2017-06-26T10:43:42.618Z,19.83
2017-06-26T10:44:51.838Z,19.78
2017-06-26T10:46:00.735Z,19.77
2017-06-26T10:47:09.641Z,19.76
2017-06-26T10:48:18.689Z,19.61
2017-06-26T10:49:27.910Z,19.63
2017-06-26T10:50:36.825Z,19.58
2017-06-26T10:51:45.723Z,19.63
2017-06-26T10:52:54.620Z,19.62
2017-06-26T10:54:03.647Z,19.59
2017-06-26T10:55:12.544Z,19.69
2017-06-26T10:56:21.802Z,19.65
2017-06-26T10:57:31.024Z,19.74
2017-06-26T10:58:39.922Z,19.71
2017-06-26T10:59:49.072Z,19.61
2017-06-26T11:00:57.967Z,19.56
2017-06-26T11:02:06.862Z,19.59
2017-06-26T11:03:15.754Z,19.44
2017-06-26T11:04:24.971Z,19.39
2017-06-26T11:05:34.064Z,19.44
2017-06-26T11:06:42.962Z,19.43
2017-06-26T11:07:52.178Z,19.29
2017-06-26T11:09:01.074Z,19.28
2017-06-26T11:10:10.299Z,19.23
2017-06-26T11:11:19.198Z,19.19
2017-06-26T11:12:28.745Z,19.22
2017-06-26T11:13:37.660Z,19.18
2017-06-26T11:14:46.880Z,19.18
2017-06-26T11:15:55.775Z,19.43
2017-06-26T11:17:04.822Z,19.39
2017-06-26T11:18:13.719Z,19.41
2017-06-26T11:19:22.610Z,19.5
2017-06-26T11:20:31.511Z,19.41
2017-06-26T11:21:41.380Z,19.47
2017-06-26T11:22:50.673Z,19.47
2017-06-26T11:24:00.216Z,19.46
2017-06-26T11:25:09.438Z,19.5
2017-06-26T11:26:18.334Z,19.47
2017-06-26T11:27:27.550Z,19.55
2017-06-26T11:28:36.492Z,19.41
2017-06-26T11:29:45.386Z,19.39
2017-06-26T11:30:54.928Z,19.56
2017-06-26T11:32:04.172Z,19.56
2017-06-26T11:33:13.066Z,19.61
2017-06-26T11:34:22.212Z,19.59
2017-06-26T11:35:31.105Z,19.62
2017-06-26T11:36:39.996Z,19.69
2017-06-26T11:37:49.216Z,19.78
2017-06-26T11:38:58.439Z,19.8
2017-06-26T11:40:07.339Z,19.88
2017-06-26T11:41:16.228Z,19.96
2017-06-26T11:42:25.119Z,19.87
2017-06-26T11:43:34.015Z,19.94
2017-06-26T11:44:42.917Z,19.99
2017-06-26T11:45:52.446Z,20.16
2017-06-26T11:47:02.003Z,20.28
2017-06-26T11:48:11.218Z,20.51
2017-06-26T11:49:20.443Z,20.5
2017-06-26T11:50:29.655Z,20.64
2017-06-26T11:51:39.023Z,20.57
2017-06-26T11:52:47.922Z,20.7
2017-06-26T11:53:56.813Z,20.85
2017-06-26T11:55:05.704Z,20.97
2017-06-26T11:56:14.602Z,21.01
2017-06-26T11:57:24.206Z,20.97
2017-06-26T11:58:33.637Z,20.73
2017-06-26T11:59:44.340Z,20.66
2017-06-26T12:00:54.038Z,20.41
2017-06-26T12:02:02.932Z,20.33
2017-06-26T12:03:12.251Z,20.32
2017-06-26T12:04:21.148Z,20.35
2017-06-26T12:05:30.704Z,20.33
2017-06-26T12:06:39.603Z,20.29
2017-06-26T12:07:48.497Z,20.23
2017-06-26T12:08:57.815Z,20.21
2017-06-26T12:10:06.976Z,20.16
2017-06-26T12:11:16.597Z,20.11
2017-06-26T12:12:25.496Z,20.14
2017-06-26T12:13:34.393Z,20.18
2017-06-26T12:14:43.588Z,20.2
2017-06-26T12:15:52.488Z,20.1
2017-06-26T12:17:01.701Z,20.02
2017-06-26T12:18:10.921Z,20.02
2017-06-26T12:19:19.816Z,19.86
2017-06-26T12:20:28.826Z,19.84
2017-06-26T12:21:37.842Z,19.84
2017-06-26T12:22:48.175Z,19.69
2017-06-26T12:23:57.613Z,19.81
2017-06-26T12:25:07.895Z,19.84
2017-06-26T12:26:17.796Z,19.86
2017-06-26T12:27:27.786Z,19.84
2017-06-26T12:28:36.957Z,19.96
2017-06-26T12:29:47.788Z,20.03
2017-06-26T12:30:57.448Z,20.05
2017-06-26T12:32:06.897Z,20.03
2017-06-26T12:33:16.290Z,20.05
2017-06-26T12:34:26.885Z,20.11
2017-06-26T12:35:36.903Z,20.32
2017-06-26T12:36:47.154Z,20.36
2017-06-26T12:37:57.490Z,20.62
2017-06-26T12:39:07.818Z,20.84
2017-06-26T12:40:17.301Z,20.88
2017-06-26T12:41:27.757Z,21.06
2017-06-26T12:42:37.293Z,21.24
2017-06-26T12:43:47.634Z,21.31
2017-06-26T12:44:57.647Z,21.16
2017-06-26T12:46:07.922Z,21.01
2017-06-26T12:47:17.286Z,21.03
2017-06-26T12:48:26.845Z,21.28
2017-06-26T12:49:35.845Z,21.35
2017-06-26T12:50:44.741Z,21.32
2017-06-26T12:51:53.972Z,21.1
2017-06-26T12:53:03.544Z,20.99
2017-06-26T12:54:12.443Z,21.06
2017-06-26T12:55:21.399Z,20.8
2017-06-26T12:56:30.629Z,20.8
2017-06-26T12:57:39.858Z,20.67
2017-06-26T12:58:49.078Z,20.62
2017-06-26T12:59:57.974Z,20.72
2017-06-26T13:01:06.932Z,20.72
2017-06-26T13:02:16.171Z,20.89
2017-06-26T13:03:25.399Z,20.91
2017-06-26T13:04:34.330Z,21.01
2017-06-26T13:05:43.232Z,21.1
2017-06-26T13:06:52.750Z,21.16
2017-06-26T13:08:01.647Z,21.24
2017-06-26T13:09:10.549Z,21.32
2017-06-26T13:10:19.458Z,21.65
2017-06-26T13:11:29.011Z,21.82
2017-06-26T13:12:38.120Z,22.09
2017-06-26T13:13:47.251Z,22.03
2017-06-26T13:14:56.197Z,21.98
2017-06-26T13:16:05.096Z,21.94
2017-06-26T13:17:13.999Z,21.92
2017-06-26T13:18:23.323Z,21.88
2017-06-26T13:19:32.245Z,21.74
2017-06-26T13:20:41.473Z,21.65
2017-06-26T13:21:51.027Z,21.29
2017-06-26T13:22:59.951Z,21.29
2017-06-26T13:24:09.380Z,21.22
2017-06-26T13:25:18.298Z,21.1
2017-06-26T13:26:27.518Z,21.14
2017-06-26T13:27:36.768Z,21.01
2017-06-26T13:28:45.669Z,20.79
2017-06-26T13:29:54.675Z,20.85
2017-06-26T13:31:03.933Z,20.91
2017-06-26T13:32:12.836Z,20.95
2017-06-26T13:33:21.733Z,20.87
2017-06-26T13:34:30.631Z,20.84
2017-06-26T13:35:39.530Z,20.87
2017-06-26T13:36:48.426Z,20.88
2017-06-26T13:37:57.651Z,20.89
2017-06-26T13:39:06.907Z,21.01
2017-06-26T13:40:15.806Z,20.97
2017-06-26T13:41:25.376Z,20.95
2017-06-26T13:42:34.604Z,20.98
2017-06-26T13:43:43.501Z,21.01
2017-06-26T13:44:52.755Z,20.99
2017-06-26T13:46:02.027Z,21.35
2017-06-26T13:47:11.158Z,21.65
2017-06-26T13:48:20.378Z,21.88
2017-06-26T13:49:29.276Z,22.21
2017-06-26T13:50:38.201Z,22.54
2017-06-26T13:51:47.433Z,22.65
2017-06-26T13:52:56.711Z,22.8
2017-06-26T13:54:05.615Z,23.19
2017-06-26T13:55:14.524Z,23.42
2017-06-26T13:56:23.429Z,23.4
2017-06-26T13:57:32.334Z,23.35
2017-06-26T13:58:41.294Z,23.22
2017-06-26T13:59:50.211Z,23.05
2017-06-26T14:00:59.118Z,22.91
2017-06-26T14:02:08.683Z,22.64
2017-06-26T14:03:17.588Z,22.54
2017-06-26T14:04:26.648Z,22.42
2017-06-26T14:05:36.202Z,22.28
2017-06-26T14:06:45.435Z,22.2
2017-06-26T14:07:54.333Z,22.22
2017-06-26T14:09:03.229Z,22.3
2017-06-26T14:10:12.713Z,22.25
2017-06-26T14:11:21.622Z,22.25
2017-06-26T14:12:30.522Z,22.22
2017-06-26T14:13:39.422Z,22.24
2017-06-26T14:14:48.326Z,22.21
2017-06-26T14:15:57.378Z,22.18
2017-06-26T14:17:06.277Z,22.18
2017-06-26T14:18:15.190Z,22.31
2017-06-26T14:19:24.096Z,22.37
2017-06-26T14:20:33.323Z,22.64
2017-06-26T14:21:42.700Z,22.73
2017-06-26T14:22:51.610Z,23.04
2017-06-26T14:24:00.516Z,23.17
2017-06-26T14:25:09.421Z,23.47
2017-06-26T14:26:18.323Z,23.51
2017-06-26T14:27:27.336Z,23.55
2017-06-26T14:28:36.243Z,23.5
2017-06-26T14:29:45.152Z,23.5
2017-06-26T14:30:54.394Z,23.58
2017-06-26T14:32:03.299Z,23.85
2017-06-26T14:33:12.686Z,24.13
2017-06-26T14:34:21.589Z,24.31
2017-06-26T14:35:30.502Z,24.53
2017-06-26T14:36:39.410Z,24.69
2017-06-26T14:37:48.313Z,24.65
2017-06-26T14:38:57.349Z,24.4
2017-06-26T14:40:06.592Z,24.16
2017-06-26T14:41:15.824Z,23.95
2017-06-26T14:42:24.726Z,23.85
2017-06-26T14:43:33.640Z,23.61
2017-06-26T14:44:42.694Z,23.36
2017-06-26T14:45:52.246Z,23.33
2017-06-26T14:47:01.147Z,23.19
2017-06-26T14:48:10.701Z,23.27
2017-06-26T14:49:19.605Z,23.12
2017-06-26T14:50:28.565Z,23
2017-06-26T14:51:37.468Z,23.16
2017-06-26T14:52:46.691Z,23.27